Time;durP1;ratioP1;P1;durP2;ratioP2;P2;SDS_P1;SDS_P2;PMS_P1;PMS_P2;Temp;Humidity;BMP_temperature;BMP_pressure;BME280_temperature;BME280_humidity;BME280_pressure;Samples;Min_cycle;Max_cycle;Signal;HPM_P1;HPM_P2
2022/12/04 00:01:09;;;;;;;21.25;8.05;;;1.00;99.90;;;;;;6185343;23;20020;-86
2022/12/04 00:03:35;;;;;;;19.15;6.45;;;0.70;99.90;;;;;;6186140;23;20355;-87
2022/12/04 00:06:16;;;;;;;21.15;7.88;;;0.50;99.90;;;;;;6159194;23;20020;-85
2022/12/04 00:08:42;;;;;;;19.20;7.00;;;1.10;99.90;;;;;;6186274;23;20340;-86
2022/12/04 00:11:10;;;;;;;22.83;7.38;;;1.10;99.90;;;;;;6185473;23;20376;-86
2022/12/04 00:13:36;;;;;;;20.40;7.78;;;1.40;99.90;;;;;;6158701;23;20027;-85
2022/12/04 00:16:14;;;;;;;20.63;6.55;;;1.20;99.90;;;;;;6159105;23;20345;-86
2022/12/04 00:18:39;;;;;;;18.83;7.72;;;0.40;99.90;;;;;;6158927;23;20028;-85
2022/12/04 00:21:07;;;;;;;18.80;7.90;;;1.50;99.90;;;;;;6185961;23;20009;-87
2022/12/04 00:23:33;;;;;;;22.38;7.68;;;0.40;99.90;;;;;;6185665;23;20369;-84
2022/12/04 00:26:06;;;;;;;20.45;6.95;;;0.50;99.90;;;;;;6159314;23;20020;-86
2022/12/04 00:28:31;;;;;;;17.35;6.55;;;0.30;99.90;;;;;;6185192;23;20009;-86
2022/12/04 00:30:57;;;;;;;20.30;7.63;;;0.90;99.90;;;;;;6186134;23;20323;-85
2022/12/04 00:33:23;;;;;;;20.23;7.47;;;2.50;99.90;;;;;;6185340;23;20027;-86
2022/12/04 00:35:57;;;;;;;21.67;7.05;;;0.40;99.90;;;;;;6185374;23;20013;-86
2022/12/04 00:38:22;;;;;;;20.48;6.75;;;2.40;99.90;;;;;;6158697;23;20444;-85
2022/12/04 00:40:50;;;;;;;23.02;8.25;;;0.10;99.90;;;;;;6185445;23;20024;-85
2022/12/04 00:43:16;;;;;;;21.50;8.10;;;0.70;99.90;;;;;;6158513;23;20017;-84
2022/12/04 00:45:41;;;;;;;20.58;7.22;;;0.40;99.90;;;;;;6158717;23;20024;-84
2022/12/04 00:48:07;;;;;;;21.75;6.35;;;0.70;99.90;;;;;;6185432;23;20024;-84
2022/12/04 00:50:32;;;;;;;17.67;6.70;;;0.50;99.90;;;;;;6184739;23;20021;-86
2022/12/04 00:52:58;;;;;;;23.05;6.97;;;0.90;99.90;;;;;;6184971;23;20021;-85
2022/12/04 00:55:24;;;;;;;18.50;7.60;;;0.70;99.90;;;;;;6158561;23;20059;-85
2022/12/04 00:57:49;;;;;;;16.92;7.30;;;1.30;99.90;;;;;;6158785;23;20103;-85
2022/12/04 01:00:17;;;;;;;19.08;7.80;;;0.70;99.90;;;;;;6185171;23;20056;-85
2022/12/04 01:02:43;;;;;;;28.77;8.88;;;0.50;99.90;;;;;;6185246;23;20021;-85
2022/12/04 01:05:09;;;;;;;19.98;8.02;;;0.50;99.90;;;;;;6185231;23;20013;-85
2022/12/04 01:07:35;;;;;;;15.73;6.72;;;1.10;99.90;;;;;;6185186;23;20013;-85
2022/12/04 01:10:00;;;;;;;20.63;8.43;;;0.80;99.90;;;;;;6185257;23;20025;-86
2022/12/04 01:12:26;;;;;;;20.77;8.20;;;1.00;99.90;;;;;;6158500;23;20021;-87
2022/12/04 01:14:51;;;;;;;20.30;7.65;;;2.40;99.90;;;;;;6158607;23;20021;-86
2022/12/04 01:17:17;;;;;;;26.35;9.52;;;0.40;99.90;;;;;;6158704;23;20410;-87
2022/12/04 01:19:43;;;;;;;22.05;7.25;;;1.90;99.90;;;;;;6184941;23;20021;-85
2022/12/04 01:22:09;;;;;;;25.05;8.27;;;1.30;99.90;;;;;;6184984;23;20044;-85
2022/12/04 01:24:34;;;;;;;24.08;8.07;;;0.40;99.90;;;;;;6158764;23;20088;-84
2022/12/04 01:27:00;;;;;;;30.05;8.43;;;1.30;99.90;;;;;;6158414;23;20076;-85
2022/12/04 01:29:26;;;;;;;21.80;9.13;;;1.20;99.90;;;;;;6185582;23;20048;-84
2022/12/04 01:31:51;;;;;;;25.55;8.90;;;1.10;99.90;;;;;;6187303;23;20444;-85
2022/12/04 01:34:17;;;;;;;27.90;8.85;;;0.40;99.90;;;;;;6160421;23;20349;-85
2022/12/04 01:36:43;;;;;;;25.55;8.68;;;0.40;99.90;;;;;;6187000;23;20019;-85
2022/12/04 01:39:08;;;;;;;26.25;8.20;;;1.50;99.90;;;;;;6160274;23;20025;-84
2022/12/04 01:41:34;;;;;;;21.67;7.88;;;0.40;99.90;;;;;;6160632;23;20349;-84
2022/12/04 01:44:21;;;;;;;17.67;7.38;;;0.90;99.90;;;;;;6186728;23;20329;-86
2022/12/04 01:46:51;;;;;;;20.52;7.68;;;0.30;99.90;;;;;;6187235;23;20017;-87
2022/12/04 01:49:24;;;;;;;24.92;8.25;;;0.30;99.90;;;;;;6160552;23;20341;-84
2022/12/04 01:52:14;;;;;;;20.17;8.18;;;0.20;99.90;;;;;;6186841;23;20083;-85
2022/12/04 01:54:43;;;;;;;29.40;9.45;;;0.30;99.90;;;;;;6160195;23;20021;-84
2022/12/04 01:57:16;;;;;;;27.08;8.50;;;0.20;99.90;;;;;;6160357;23;20021;-85
2022/12/04 01:59:54;;;;;;;18.63;6.85;;;0.20;99.90;;;;;;6186885;23;20017;-84
2022/12/04 02:02:28;;;;;;;23.13;7.72;;;0.20;99.90;;;;;;6187153;23;20072;-86
2022/12/04 02:04:54;;;;;;;22.05;6.93;;;0.20;99.90;;;;;;6160291;23;20101;-85
2022/12/04 02:07:20;;;;;;;21.95;7.18;;;0.70;99.90;;;;;;6186958;23;20067;-84
2022/12/04 02:09:52;;;;;;;25.13;9.10;;;1.90;99.90;;;;;;6186950;23;20380;-84
2022/12/04 02:12:40;;;;;;;24.58;8.55;;;1.20;99.90;;;;;;6186542;23;20009;-85
2022/12/04 02:15:29;;;;;;;22.85;9.02;;;0.20;99.90;;;;;;6186314;23;20016;-85
2022/12/04 02:18:07;;;;;;;20.45;7.40;;;0.20;99.90;;;;;;6186391;23;20027;-85
2022/12/04 02:20:38;;;;;;;27.13;9.18;;;0.30;99.90;;;;;;6186909;23;20013;-84
2022/12/04 02:23:18;;;;;;;25.10;8.48;;;0.30;99.90;;;;;;6160385;23;20044;-84
2022/12/04 02:25:57;;;;;;;19.65;7.78;;;0.30;99.90;;;;;;6186854;23;20017;-85
2022/12/04 02:28:44;;;;;;;23.85;8.30;;;0.30;99.90;;;;;;6186726;23;20013;-84
2022/12/04 02:31:15;;;;;;;26.48;8.52;;;0.40;99.90;;;;;;6186488;23;20028;-83
2022/12/04 02:33:47;;;;;;;26.73;8.43;;;0.40;99.90;;;;;;6186948;23;20088;-84
2022/12/04 02:36:20;;;;;;;25.27;7.97;;;0.40;99.90;;;;;;6186114;23;20020;-84
2022/12/04 02:38:54;;;;;;;21.27;7.97;;;0.40;99.90;;;;;;6186376;23;20072;-85
2022/12/04 02:41:26;;;;;;;21.67;6.63;;;0.40;99.90;;;;;;6185551;23;20021;-86
2022/12/04 02:44:01;;;;;;;23.27;9.63;;;0.90;99.90;;;;;;6159739;23;20017;-84
2022/12/04 02:46:35;;;;;;;28.92;10.40;;;0.40;99.90;;;;;;6186280;23;20032;-85
2022/12/04 02:49:03;;;;;;;22.77;8.73;;;0.40;99.90;;;;;;6186294;23;20058;-85
2022/12/04 02:51:33;;;;;;;25.27;9.30;;;0.40;99.90;;;;;;6159653;23;20013;-85
2022/12/04 02:54:11;;;;;;;25.85;10.40;;;0.10;99.90;;;;;;6160169;23;20092;-84
2022/12/04 02:56:42;;;;;;;30.38;10.13;;;1.00;99.90;;;;;;6185829;23;20013;-84
2022/12/04 02:59:14;;;;;;;25.42;10.75;;;0.40;99.90;;;;;;6186037;23;20056;-85
2022/12/04 03:01:45;;;;;;;27.95;9.88;;;0.30;99.90;;;;;;6185868;23;20044;-85
2022/12/04 03:04:14;;;;;;;29.67;10.43;;;1.70;99.90;;;;;;6159964;23;20097;-86
2022/12/04 03:06:43;;;;;;;25.52;9.93;;;0.40;99.90;;;;;;6186232;23;20017;-84
2022/12/04 03:09:31;;;;;;;34.38;11.27;;;0.80;99.90;;;;;;6186355;23;20379;-86
2022/12/04 03:12:08;;;;;;;30.05;11.07;;;0.30;99.90;;;;;;6186128;23;20348;-85
2022/12/04 03:14:45;;;;;;;35.28;12.25;;;0.30;99.90;;;;;;6159662;23;20024;-85
2022/12/04 03:17:21;;;;;;;35.70;11.73;;;0.30;99.90;;;;;;6186160;23;20021;-85
2022/12/04 03:19:53;;;;;;;30.25;11.18;;;0.30;99.90;;;;;;6159468;23;20468;-85
2022/12/04 03:22:21;;;;;;;29.98;10.93;;;0.30;99.90;;;;;;6186159;23;20017;-85
2022/12/04 03:24:52;;;;;;;30.35;10.82;;;1.20;99.90;;;;;;6186092;23;20016;-85
2022/12/04 03:27:28;;;;;;;31.73;12.98;;;0.20;99.90;;;;;;6186247;23;20386;-84
2022/12/04 03:30:03;;;;;;;25.25;10.80;;;0.20;99.90;;;;;;6158869;23;20357;-84
2022/12/04 03:32:28;;;;;;;36.08;12.88;;;0.20;99.90;;;;;;6159835;23;20013;-84
2022/12/04 03:35:00;;;;;;;38.67;12.68;;;0.20;99.90;;;;;;6185536;23;20056;-85
2022/12/04 03:37:31;;;;;;;34.38;11.45;;;0.60;99.90;;;;;;6185995;23;20341;-84
2022/12/04 03:40:00;;;;;;;34.50;12.65;;;0.20;99.90;;;;;;6185503;23;20479;-84
2022/12/04 03:42:51;;;;;;;34.72;12.35;;;1.60;99.90;;;;;;6185693;23;20021;-84
2022/12/04 03:45:43;;;;;;;31.10;13.25;;;0.10;99.90;;;;;;6036641;23;20429;-84
2022/12/04 03:48:20;;;;;;;48.95;27.55;;;0.20;99.90;;;;;;6037382;23;20020;-84
2022/12/04 03:51:06;;;;;;;34.17;13.77;;;0.20;99.90;;;;;;6036949;23;20031;-85
2022/12/04 03:53:49;;;;;;;33.58;13.30;;;0.20;99.90;;;;;;6036822;23;20499;-86
2022/12/04 03:56:28;;;;;;;37.30;12.82;;;1.60;99.90;;;;;;6037179;23;20544;-86
2022/12/04 03:59:02;;;;;;;35.75;12.43;;;0.10;99.90;;;;;;6037133;23;20090;-84
2022/12/04 04:01:33;;;;;;;31.63;11.40;;;0.10;99.90;;;;;;6036751;23;20019;-84
2022/12/04 04:04:00;;;;;;;36.42;13.23;;;1.20;99.90;;;;;;5989736;23;20026;-84
2022/12/04 04:06:31;;;;;;;34.10;12.18;;;0.10;99.90;;;;;;6037384;23;20079;-84
2022/12/04 04:09:03;;;;;;;26.27;11.35;;;0.10;99.90;;;;;;6036904;23;20023;-84
2022/12/04 04:11:48;;;;;;;30.00;10.65;;;0.10;99.90;;;;;;6036584;23;20058;-84
2022/12/04 04:25:44;;;;;;;36.45;12.02;;;0.10;99.90;;;;;;6185308;23;20108;-83
2022/12/04 04:28:48;;;;;;;30.63;11.73;;;0.10;99.90;;;;;;6185238;23;20036;-84
2022/12/04 04:31:35;;;;;;;34.15;12.23;;;0.10;99.90;;;;;;6036629;23;20023;-84
2022/12/04 04:34:09;;;;;;;37.28;14.45;;;0.10;99.90;;;;;;6036411;23;20019;-84
2022/12/04 04:36:47;;;;;;;32.60;11.98;;;0.10;99.90;;;;;;6036585;23;20019;-85
2022/12/04 04:39:19;;;;;;;29.02;11.07;;;0.10;99.90;;;;;;6036625;23;20055;-84
2022/12/04 04:41:56;;;;;;;39.33;21.83;;;0.10;99.90;;;;;;6036809;23;20336;-84
2022/12/04 04:44:44;;;;;;;35.83;13.02;;;0.10;99.90;;;;;;6036052;23;20023;-84
2022/12/04 04:47:17;;;;;;;31.10;10.63;;;0.10;99.90;;;;;;6036542;23;20131;-84
2022/12/04 04:49:45;;;;;;;32.63;11.25;;;0.10;99.90;;;;;;6036673;23;20051;-85
2022/12/04 04:52:11;;;;;;;30.52;11.85;;;0.10;99.90;;;;;;6036840;23;20026;-85
2022/12/04 04:54:37;;;;;;;36.08;12.88;;;-0.40;99.90;;;;;;6036351;23;20400;-85
2022/12/04 04:57:03;;;;;;;37.35;12.60;;;0.30;99.90;;;;;;6036701;23;20022;-84
2022/12/04 04:59:28;;;;;;;40.60;14.07;;;0.40;99.90;;;;;;6036587;23;20015;-84
2022/12/04 05:01:55;;;;;;;36.83;12.70;;;1.20;99.90;;;;;;6107431;23;20053;-84
2022/12/04 05:04:21;;;;;;;34.70;12.70;;;0.10;99.90;;;;;;6185166;23;20017;-84
2022/12/04 05:06:47;;;;;;;33.53;13.13;;;0.10;99.90;;;;;;6184919;23;20475;-85
2022/12/04 05:09:13;;;;;;;33.47;12.10;;;0.10;99.90;;;;;;6184941;23;20017;-84
2022/12/04 05:11:39;;;;;;;33.60;11.95;;;0.00;99.90;;;;;;6184998;23;20013;-84
2022/12/04 05:14:05;;;;;;;28.83;11.13;;;0.10;99.90;;;;;;6184837;23;20060;-84
2022/12/04 05:16:31;;;;;;;32.20;11.75;;;0.50;99.90;;;;;;6185080;23;20017;-84
2022/12/04 05:21:41;;;;;;;31.92;11.15;;;1.10;99.90;;;;;;6185197;23;20079;-85
2022/12/04 05:24:08;;;;;;;31.48;11.82;;;0.10;99.90;;;;;;6184779;23;20452;-85
2022/12/04 05:26:33;;;;;;;37.78;13.55;;;0.10;99.90;;;;;;6158467;23;20017;-84
2022/12/04 05:28:59;;;;;;;37.13;13.35;;;0.10;99.90;;;;;;6184847;23;20100;-84
2022/12/04 05:31:25;;;;;;;38.88;13.10;;;0.10;99.90;;;;;;6158643;23;20436;-84
2022/12/04 05:33:50;;;;;;;34.13;12.20;;;1.20;99.90;;;;;;6184563;23;20017;-84
2022/12/04 05:36:16;;;;;;;33.42;12.48;;;0.50;99.90;;;;;;6158418;23;20017;-84
2022/12/04 05:38:42;;;;;;;31.15;11.98;;;-0.10;99.90;;;;;;6185042;23;20017;-84
2022/12/04 05:41:07;;;;;;;33.63;12.00;;;0.10;99.90;;;;;;6158737;23;20422;-84
2022/12/04 05:43:33;;;;;;;30.85;11.85;;;0.00;99.90;;;;;;6157956;23;20104;-84
2022/12/04 05:46:04;;;;;;;32.03;11.93;;;1.20;99.90;;;;;;6158271;23;20349;-85
2022/12/04 05:48:30;;;;;;;30.35;11.55;;;0.10;99.90;;;;;;6185555;23;20010;-85
2022/12/04 05:50:56;;;;;;;39.25;13.23;;;0.80;99.90;;;;;;6185460;23;20040;-84
2022/12/04 05:53:21;;;;;;;36.75;13.38;;;1.30;99.90;;;;;;6185173;23;20013;-84
2022/12/04 05:55:58;;;;;;;37.47;13.90;;;1.30;99.90;;;;;;6158305;23;20060;-85
2022/12/04 05:58:24;;;;;;;31.25;13.00;;;0.20;99.90;;;;;;6184897;23;20021;-84
2022/12/04 06:00:50;;;;;;;37.38;12.88;;;0.40;99.90;;;;;;6184957;23;20372;-84
2022/12/04 06:03:16;;;;;;;30.77;12.90;;;0.20;99.90;;;;;;6184977;23;20127;-86
2022/12/04 06:05:42;;;;;;;33.17;14.00;;;0.10;99.90;;;;;;6184807;23;20021;-83
2022/12/04 06:08:07;;;;;;;39.72;12.43;;;0.10;99.90;;;;;;6185141;23;20339;-84
2022/12/04 06:10:33;;;;;;;33.50;11.25;;;1.20;99.90;;;;;;6185181;23;20060;-84
2022/12/04 06:12:59;;;;;;;32.60;12.35;;;0.10;99.90;;;;;;6158081;23;20032;-85
2022/12/04 06:15:24;;;;;;;36.75;13.25;;;0.20;99.90;;;;;;6184637;23;20009;-84
2022/12/04 06:17:50;;;;;;;31.17;12.00;;;0.60;99.90;;;;;;6160432;23;20021;-86
2022/12/04 06:20:16;;;;;;;40.22;14.55;;;0.10;99.90;;;;;;6160240;23;20019;-84
2022/12/04 06:22:41;;;;;;;33.15;13.73;;;1.40;99.90;;;;;;6160263;23;20021;-85
2022/12/04 06:25:08;;;;;;;38.80;14.85;;;1.30;99.90;;;;;;6160152;23;20021;-85
2022/12/04 06:27:34;;;;;;;32.67;11.80;;;0.20;99.90;;;;;;6186484;23;20039;-84
2022/12/04 06:30:00;;;;;;;29.88;12.60;;;1.10;99.90;;;;;;6159887;23;20092;-84
2022/12/04 06:32:26;;;;;;;38.13;14.43;;;0.20;99.90;;;;;;6160559;23;20048;-84
2022/12/04 06:34:53;;;;;;;36.17;13.32;;;-0.30;99.90;;;;;;6186399;23;20017;-85
2022/12/04 06:37:21;;;;;;;40.13;14.93;;;0.30;99.90;;;;;;6159826;23;20048;-83
2022/12/04 06:39:46;;;;;;;37.25;13.35;;;0.20;99.90;;;;;;6186784;23;20013;-84
2022/12/04 06:42:12;;;;;;;36.53;13.65;;;1.80;99.90;;;;;;6186717;23;20091;-85
2022/12/04 06:44:38;;;;;;;36.97;14.07;;;0.60;99.90;;;;;;6186097;23;20021;-84
2022/12/04 06:47:04;;;;;;;35.33;13.73;;;0.20;99.90;;;;;;6186339;23;20427;-84
2022/12/04 06:49:30;;;;;;;33.97;12.80;;;1.10;99.90;;;;;;6160127;23;20092;-85
2022/12/04 06:51:55;;;;;;;34.15;12.20;;;0.70;99.90;;;;;;6186323;23;20472;-84
2022/12/04 06:54:21;;;;;;;35.10;12.68;;;1.20;99.90;;;;;;6159720;23;20025;-86
2022/12/04 06:56:48;;;;;;;32.30;12.30;;;0.90;99.90;;;;;;6186177;23;20056;-84
2022/12/04 06:59:14;;;;;;;40.05;13.65;;;0.20;99.90;;;;;;6186263;23;20021;-84
2022/12/04 07:01:40;;;;;;;37.50;11.95;;;0.80;99.90;;;;;;6186581;23;20140;-84
2022/12/04 07:04:05;;;;;;;31.83;12.60;;;0.20;99.90;;;;;;6186099;23;20013;-84
2022/12/04 07:06:37;;;;;;;33.38;13.10;;;0.20;99.90;;;;;;6186302;23;20015;-85
2022/12/04 07:09:12;;;;;;;31.48;12.88;;;1.10;99.90;;;;;;6186712;23;20400;-84
2022/12/04 07:11:38;;;;;;;32.45;12.93;;;1.50;99.90;;;;;;6186210;23;20013;-85
2022/12/04 07:14:04;;;;;;;39.35;14.82;;;1.00;99.90;;;;;;6185828;23;20452;-85
2022/12/04 07:16:30;;;;;;;33.58;11.98;;;0.90;99.90;;;;;;6186153;23;20092;-84
2022/12/04 07:18:56;;;;;;;34.75;12.80;;;1.20;99.90;;;;;;6186603;23;20078;-84
2022/12/04 07:21:27;;;;;;;28.77;11.60;;;0.40;99.90;;;;;;6185959;23;20088;-84
2022/12/04 07:23:55;;;;;;;34.15;12.02;;;1.00;99.90;;;;;;6186356;23;20375;-85
2022/12/04 07:26:22;;;;;;;36.55;12.73;;;0.00;99.90;;;;;;6186307;23;20329;-84
2022/12/04 07:28:48;;;;;;;30.77;11.27;;;0.40;99.90;;;;;;6185503;23;20017;-85
2022/12/04 07:31:17;;;;;;;37.47;12.93;;;1.00;99.90;;;;;;6159288;23;20059;-85
2022/12/04 07:33:44;;;;;;;31.42;12.63;;;0.40;99.90;;;;;;6185863;23;20086;-83
2022/12/04 07:36:13;;;;;;;30.48;12.10;;;0.40;99.90;;;;;;6185975;23;20049;-85
2022/12/04 07:38:39;;;;;;;28.77;10.85;;;1.80;99.90;;;;;;6185931;23;20348;-84
2022/12/04 07:41:06;;;;;;;33.50;12.70;;;0.60;99.90;;;;;;6186121;23;20020;-84
2022/12/04 07:43:32;;;;;;;32.47;11.15;;;0.60;99.90;;;;;;6159169;23;20027;-84
2022/12/04 07:46:02;;;;;;;34.38;12.77;;;0.50;99.90;;;;;;6159157;23;20017;-84
2022/12/04 07:48:28;;;;;;;36.38;12.77;;;0.50;99.90;;;;;;6185676;23;20059;-85
2022/12/04 07:51:11;;;;;;;29.92;11.73;;;0.50;99.90;;;;;;6185681;23;20025;-85
2022/12/04 07:53:38;;;;;;;31.52;12.00;;;0.50;99.90;;;;;;6185729;23;20103;-84
2022/12/04 07:56:04;;;;;;;33.97;12.48;;;0.60;99.90;;;;;;6185669;23;20089;-84
2022/12/04 07:58:30;;;;;;;30.40;12.70;;;0.60;99.90;;;;;;6185596;23;20020;-85
2022/12/04 08:01:14;;;;;;;31.38;12.88;;;0.80;99.90;;;;;;6184969;23;20020;-85
2022/12/04 08:03:41;;;;;;;33.35;13.15;;;0.80;99.90;;;;;;6159462;23;20028;-85
2022/12/04 08:06:07;;;;;;;32.47;12.93;;;1.30;99.90;;;;;;6186273;23;20092;-87
2022/12/04 08:08:34;;;;;;;33.90;11.80;;;0.60;99.90;;;;;;6185648;23;20021;-86
2022/12/04 08:11:04;;;;;;;33.78;12.77;;;0.40;99.90;;;;;;6185151;23;20028;-85
2022/12/04 08:13:29;;;;;;;30.23;13.02;;;0.60;99.90;;;;;;6158668;23;20024;-85
2022/12/04 08:15:55;;;;;;;34.20;12.38;;;1.20;99.90;;;;;;6184978;23;20017;-86
2022/12/04 08:18:20;;;;;;;29.85;12.05;;;0.70;99.90;;;;;;6159439;23;20025;-88
2022/12/04 08:20:46;;;;;;;29.98;12.68;;;0.60;99.90;;;;;;6185630;23;20020;-86
2022/12/04 08:23:12;;;;;;;29.85;11.85;;;0.90;99.90;;;;;;6159272;23;20020;-88
2022/12/04 08:25:39;;;;;;;33.90;12.90;;;1.10;99.90;;;;;;6185528;23;20019;-86
2022/12/04 08:28:05;;;;;;;26.67;11.38;;;1.60;99.90;;;;;;6158429;23;20053;-85
2022/12/04 08:30:32;;;;;;;29.10;12.15;;;2.00;99.90;;;;;;6185665;23;20020;-84
2022/12/04 08:32:58;;;;;;;35.33;13.48;;;1.40;99.90;;;;;;6185531;23;20345;-84
2022/12/04 08:35:24;;;;;;;30.35;12.80;;;1.80;99.90;;;;;;6185749;23;20027;-89
2022/12/04 08:37:49;;;;;;;26.95;10.80;;;0.10;99.90;;;;;;6158985;23;20444;-86
2022/12/04 08:40:16;;;;;;;25.90;11.05;;;1.50;99.90;;;;;;6184627;23;20448;-87
2022/12/04 08:42:42;;;;;;;33.10;12.68;;;1.40;99.90;;;;;;6158374;23;20433;-86
2022/12/04 08:45:08;;;;;;;31.77;12.07;;;0.60;99.90;;;;;;6184394;23;20060;-86
2022/12/04 08:47:34;;;;;;;30.48;11.02;;;0.90;99.90;;;;;;6185345;23;20056;-84
2022/12/04 08:49:59;;;;;;;28.50;10.88;;;1.00;99.90;;;;;;6185189;23;20352;-84
2022/12/04 08:52:25;;;;;;;33.40;12.38;;;1.00;99.90;;;;;;6185022;23;20032;-85
2022/12/04 08:54:51;;;;;;;27.23;10.75;;;1.00;99.90;;;;;;6159057;23;20051;-85
2022/12/04 08:57:17;;;;;;;26.77;10.43;;;3.10;99.90;;;;;;6184834;23;20020;-85
2022/12/04 08:59:42;;;;;;;29.17;11.02;;;1.00;99.90;;;;;;6184773;23;20017;-83
2022/12/04 09:02:10;;;;;;;27.35;11.60;;;1.40;99.90;;;;;;6185399;23;20064;-84
2022/12/04 09:04:35;;;;;;;30.00;11.35;;;1.10;99.90;;;;;;6185233;23;20376;-85
2022/12/04 09:07:01;;;;;;;27.40;11.82;;;1.20;99.90;;;;;;6185028;23;20013;-85
2022/12/04 09:09:27;;;;;;;29.50;10.88;;;1.50;99.90;;;;;;6185308;23;20013;-88
2022/12/04 09:11:52;;;;;;;26.15;10.85;;;2.00;99.90;;;;;;6184740;23;20021;-83
2022/12/04 09:14:24;;;;;;;29.67;11.00;;;1.20;99.90;;;;;;6158516;23;20061;-87
2022/12/04 09:16:53;;;;;;;28.52;10.85;;;1.30;99.90;;;;;;6184629;23;20056;-83
2022/12/04 09:19:19;;;;;;;27.65;11.63;;;2.40;99.90;;;;;;6185020;23;20027;-85
2022/12/04 09:21:45;;;;;;;30.38;13.15;;;1.30;99.90;;;;;;6158518;23;20495;-85
2022/12/04 09:24:10;;;;;;;29.58;11.68;;;1.30;99.90;;;;;;6185089;23;20020;-83
2022/12/04 09:26:36;;;;;;;29.02;12.00;;;1.40;99.90;;;;;;6184649;23;20021;-84
2022/12/04 09:29:03;;;;;;;25.33;10.98;;;1.50;99.90;;;;;;6184528;23;20021;-86
2022/12/04 09:31:30;;;;;;;30.10;10.77;;;1.40;99.90;;;;;;6185256;23;20107;-85
2022/12/04 09:34:00;;;;;;;24.98;10.57;;;1.50;99.90;;;;;;6185598;23;20388;-88
2022/12/04 09:36:26;;;;;;;28.77;10.63;;;2.40;99.90;;;;;;6158356;23;20100;-86
2022/12/04 09:38:53;;;;;;;26.63;11.05;;;2.30;99.90;;;;;;6159082;23;20388;-87
2022/12/04 09:41:30;;;;;;;76.90;71.22;;;2.10;99.90;;;;;;6185104;23;20009;-85
2022/12/04 09:44:53;;;;;;;38.42;34.72;;;1.70;99.90;;;;;;6158298;23;20067;-87
2022/12/04 09:47:22;;;;;;;23.63;10.00;;;1.80;99.90;;;;;;6036219;23;20533;-86
2022/12/04 09:50:00;;;;;;;19.70;7.93;;;2.00;99.90;;;;;;6036324;23;20416;-86
2022/12/04 09:52:41;;;;;;;95.05;88.75;;;2.50;99.90;;;;;;6038408;23;20015;-86
2022/12/04 09:55:23;;;;;;;232.35;180.05;;;1.50;99.90;;;;;;6038305;23;20390;-85
2022/12/04 09:57:53;;;;;;;256.33;192.50;;;2.00;99.90;;;;;;6013835;23;20027;-86
2022/12/04 10:00:19;;;;;;;184.32;160.95;;;1.90;99.90;;;;;;6038379;23;20058;-86
2022/12/04 10:02:56;;;;;;;79.75;73.10;;;1.90;99.90;;;;;;6014395;23;20023;-87
2022/12/04 10:05:47;;;;;;;138.52;126.50;;;1.30;99.90;;;;;;6038293;23;20098;-86
2022/12/04 10:08:37;;;;;;;240.77;197.18;;;1.90;99.90;;;;;;6038024;23;20082;-86
2022/12/04 10:11:34;;;;;;;143.13;131.57;;;1.90;99.90;;;;;;6038070;23;20122;-86
2022/12/04 10:14:27;;;;;;;195.32;151.60;;;1.90;99.90;;;;;;6037903;23;20023;-86
2022/12/04 10:17:14;;;;;;;166.07;140.20;;;2.00;99.90;;;;;;6015021;23;20067;-87
2022/12/04 10:20:01;;;;;;;132.45;122.07;;;2.00;99.90;;;;;;6186621;23;20513;-85
2022/12/04 10:22:48;;;;;;;31.70;24.65;;;2.00;99.90;;;;;;6186657;23;20107;-86
2022/12/04 10:25:23;;;;;;;27.55;9.95;;;2.10;99.90;;;;;;6187123;23;20442;-86
2022/12/04 10:28:05;;;;;;;26.60;10.07;;;3.20;99.90;;;;;;6186689;23;20013;-86
2022/12/04 10:30:35;;;;;;;23.80;9.07;;;2.10;99.90;;;;;;6160185;23;20059;-86
2022/12/04 10:33:18;;;;;;;23.00;11.45;;;2.10;99.90;;;;;;6160038;23;20024;-86
2022/12/04 10:35:47;;;;;;;25.45;19.52;;;2.00;99.90;;;;;;6160093;23;20107;-86
2022/12/04 10:38:41;;;;;;;29.38;26.40;;;3.30;99.90;;;;;;6160433;23;20025;-86
2022/12/04 10:41:39;;;;;;;23.85;15.40;;;2.10;99.90;;;;;;6159795;23;20020;-86
2022/12/04 10:44:05;;;;;;;48.22;44.22;;;2.10;99.90;;;;;;6159392;23;20021;-85
2022/12/04 10:46:33;;;;;;;20.85;15.15;;;2.10;99.90;;;;;;6186821;23;20023;-86
2022/12/04 10:49:10;;;;;;;42.95;39.17;;;2.30;99.90;;;;;;6186749;23;20392;-86
2022/12/04 10:51:41;;;;;;;54.33;50.55;;;2.20;99.90;;;;;;6186349;23;20132;-86
2022/12/04 10:54:34;;;;;;;20.83;12.63;;;2.40;99.90;;;;;;6159625;23;20021;-86
2022/12/04 10:57:07;;;;;;;16.88;7.88;;;2.30;99.90;;;;;;6147941;23;20020;-86
2022/12/04 10:59:34;;;;;;;18.55;6.90;;;2.30;99.90;;;;;;6186871;23;20069;-86
2022/12/04 11:02:26;;;;;;;18.20;16.35;;;2.40;99.90;;;;;;6159496;23;20013;-86
2022/12/04 11:05:02;;;;;;;15.07;6.47;;;2.40;99.90;;;;;;6160124;23;20017;-86
2022/12/04 11:07:45;;;;;;;12.20;5.57;;;2.40;99.90;;;;;;6160447;23;20025;-86
2022/12/04 11:10:23;;;;;;;14.10;6.55;;;3.50;99.90;;;;;;6159674;23;20084;-86
2022/12/04 11:13:01;;;;;;;15.45;6.75;;;2.50;99.90;;;;;;6186146;23;20475;-86
2022/12/04 11:15:27;;;;;;;19.23;6.80;;;2.50;99.90;;;;;;6159709;23;20013;-85
2022/12/04 11:17:53;;;;;;;14.82;6.68;;;3.10;99.90;;;;;;6186168;23;20025;-86
2022/12/04 11:20:25;;;;;;;16.52;5.93;;;2.50;99.90;;;;;;6159702;23;20052;-86
2022/12/04 11:22:56;;;;;;;16.95;6.30;;;2.60;99.90;;;;;;6159645;23;20092;-86
2022/12/04 11:25:24;;;;;;;15.15;6.95;;;2.50;99.90;;;;;;6186262;23;20336;-86
2022/12/04 11:27:54;;;;;;;19.40;6.95;;;2.60;99.90;;;;;;6186069;23;20065;-85
2022/12/04 11:30:33;;;;;;;16.10;6.28;;;3.60;99.90;;;;;;6159480;23;20021;-85
2022/12/04 11:33:20;;;;;;;19.00;7.10;;;2.90;99.90;;;;;;6185879;23;20017;-88
2022/12/04 11:35:52;;;;;;;15.60;6.30;;;2.50;99.90;;;;;;6159396;23;20021;-86
2022/12/04 11:38:23;;;;;;;16.95;7.95;;;2.50;99.90;;;;;;6186087;23;20017;-86
2022/12/04 11:40:52;;;;;;;15.50;7.47;;;2.50;99.90;;;;;;6185886;23;20524;-86
2022/12/04 11:43:18;;;;;;;17.65;7.82;;;2.30;99.90;;;;;;6159310;23;20013;-85
2022/12/04 11:46:21;;;;;;;23.98;10.45;;;3.30;99.90;;;;;;6185774;23;20075;-84
2022/12/04 11:48:48;;;;;;;23.55;8.40;;;2.50;99.90;;;;;;6037263;23;20050;-84
2022/12/04 11:51:54;;;;;;;22.17;7.63;;;2.00;99.90;;;;;;6037156;23;20046;-84
2022/12/04 11:54:34;;;;;;;23.02;8.45;;;2.50;99.90;;;;;;6037305;23;20094;-85
2022/12/04 11:57:12;;;;;;;19.08;8.23;;;2.40;99.90;;;;;;6037223;23;20029;-88
2022/12/04 12:00:03;;;;;;;17.25;7.22;;;2.50;99.90;;;;;;6036824;23;20023;-85
2022/12/04 12:02:34;;;;;;;18.98;8.02;;;2.50;99.90;;;;;;5989993;23;20019;-85
2022/12/04 12:05:27;;;;;;;18.92;6.95;;;2.50;99.90;;;;;;6036877;23;20023;-85
2022/12/04 12:08:34;;;;;;;16.02;6.63;;;2.50;99.90;;;;;;6037106;23;20471;-84
2022/12/04 12:11:22;;;;;;;18.63;7.93;;;2.50;99.90;;;;;;5902419;24;20032;-84
2022/12/04 12:14:03;;;;;;;17.48;7.22;;;2.80;99.90;;;;;;5924917;24;20021;-84
2022/12/04 12:16:52;;;;;;;18.50;7.65;;;2.60;99.90;;;;;;5902085;24;20025;-85
2022/12/04 12:19:34;;;;;;;16.73;6.25;;;2.60;99.90;;;;;;5924659;24;20024;-84
2022/12/04 12:22:36;;;;;;;18.75;7.60;;;2.50;99.90;;;;;;5925082;24;20032;-84
2022/12/04 12:25:02;;;;;;;18.40;8.32;;;2.70;99.90;;;;;;5991652;23;20019;-85
2022/12/04 12:27:43;;;;;;;18.95;6.93;;;3.90;99.90;;;;;;5984838;23;20396;-84
2022/12/04 12:30:18;;;;;;;20.73;7.53;;;2.80;99.90;;;;;;5984840;23;20023;-84
2022/12/04 12:33:11;;;;;;;14.45;6.55;;;2.50;99.90;;;;;;6008134;23;20104;-85
2022/12/04 12:35:40;;;;;;;16.50;6.65;;;2.60;99.90;;;;;;5984584;23;20360;-83
2022/12/04 12:38:31;;;;;;;19.55;8.52;;;4.30;99.90;;;;;;6008635;23;20031;-84
2022/12/04 12:41:11;;;;;;;17.15;7.50;;;2.60;99.90;;;;;;5903465;23;20506;-84
2022/12/04 12:43:38;;;;;;;17.40;7.88;;;2.00;99.90;;;;;;6041159;23;20355;-84
2022/12/04 12:46:08;;;;;;;19.92;8.23;;;2.50;99.90;;;;;;6040952;23;20087;-84
2022/12/04 12:48:43;;;;;;;20.73;8.75;;;3.60;99.90;;;;;;6065211;23;20031;-84
2022/12/04 12:51:42;;;;;;;19.43;7.73;;;2.70;99.90;;;;;;6065222;23;20019;-84
2022/12/04 12:54:41;;;;;;;16.10;6.75;;;2.60;99.90;;;;;;6064029;23;20057;-82
2022/12/04 12:57:28;;;;;;;15.10;6.28;;;2.60;99.90;;;;;;6064418;23;20393;-84
2022/12/04 13:00:18;;;;;;;18.52;8.10;;;2.60;99.90;;;;;;6040667;23;20134;-83
2022/12/04 13:03:25;;;;;;;19.00;6.72;;;2.60;99.90;;;;;;6064403;23;20026;-83
2022/12/04 13:06:23;;;;;;;14.88;5.43;;;2.60;99.90;;;;;;5984265;23;20019;-83
2022/12/04 13:09:03;;;;;;;15.43;6.97;;;2.60;99.90;;;;;;6008169;23;20020;-85
2022/12/04 13:11:31;;;;;;;24.15;6.65;;;2.70;99.90;;;;;;6007864;23;20015;-84
2022/12/04 13:14:03;;;;;;;13.57;6.60;;;2.70;99.90;;;;;;5984251;23;20035;-82
2022/12/04 13:16:32;;;;;;;16.10;6.72;;;2.30;99.90;;;;;;6008295;23;20521;-85
2022/12/04 13:19:17;;;;;;;21.63;6.97;;;2.60;99.90;;;;;;6037689;23;20097;-84
2022/12/04 13:22:20;;;;;;;14.75;6.50;;;2.70;99.90;;;;;;6065390;23;20019;-83